createdAt,value
2022-12-31T00:02:53.922Z,100120.76
2022-12-31T00:32:57.753Z,100077.05
2022-12-31T01:03:01.686Z,100090.85
2022-12-31T01:33:04.623Z,100108.33
2022-12-31T02:03:08.472Z,100118.42
2022-12-31T02:33:11.393Z,100110.05
2022-12-31T03:03:15.327Z,100141.80
2022-12-31T03:33:18.210Z,100134.56
2022-12-31T04:03:22.662Z,100134.91
2022-12-31T04:33:25.772Z,100146.47
2022-12-31T05:03:29.960Z,100141.53
2022-12-31T05:33:33.463Z,100160.22
2022-12-31T06:03:38.164Z,100166.14
2022-12-31T06:33:41.049Z,100196.96
2022-12-31T07:03:45.001Z,100142.01
2022-12-31T07:33:47.959Z,100174.42
2022-12-31T08:03:52.271Z,100148.39
2022-12-31T08:33:56.222Z,100132.84
2022-12-31T09:04:02.840Z,100137.76
2022-12-31T09:34:05.706Z,100091.39
2022-12-31T10:04:09.739Z,100094.77
2022-12-31T10:34:12.719Z,100065.63
2022-12-31T11:04:16.602Z,100033.68
2022-12-31T11:34:20.063Z,100001.13
2022-12-31T12:04:25.622Z,99994.34
2022-12-31T12:34:28.474Z,100014.63
2022-12-31T13:04:34.648Z,100016.73
2022-12-31T13:34:38.117Z,100013.35
2022-12-31T14:04:43.296Z,100044.17
2022-12-31T14:34:46.155Z,100069.58
2022-12-31T15:04:50.958Z,100103.20
2022-12-31T15:34:53.774Z,100116.61
2022-12-31T16:04:58.144Z,100155.08
2022-12-31T16:35:01.018Z,100173.52
2022-12-31T17:05:04.609Z,100210.69
2022-12-31T17:35:07.420Z,100219.31
2022-12-31T18:05:11.925Z,100251.77
2022-12-31T18:35:33.271Z,100236.64
2022-12-31T19:05:39.588Z,100239.81
2022-12-31T19:35:42.511Z,100249.30
2022-12-31T20:05:49.215Z,100241.45
2022-12-31T20:35:52.667Z,100250.41
2022-12-31T21:05:57.521Z,100253.30
2022-12-31T21:36:04.570Z,100265.37
2022-12-31T22:06:08.508Z,100271.90
2022-12-31T22:36:11.635Z,100264.01
2022-12-31T23:06:14.566Z,100269.17
2022-12-31T23:36:17.852Z,100298.73
